sensor_id;sensor_type;location;lat;lon;timestamp;temperature;humidity
39665;DHT22;26679;50.872;4.332;2022-08-07T00:00:30;18.90;83.50
39665;DHT22;26679;50.872;4.332;2022-08-07T00:02:55;18.90;83.60
39665;DHT22;26679;50.872;4.332;2022-08-07T00:05:21;18.90;83.80
39665;DHT22;26679;50.872;4.332;2022-08-07T00:07:46;19.00;83.90
39665;DHT22;26679;50.872;4.332;2022-08-07T00:10:12;19.00;83.90
39665;DHT22;26679;50.872;4.332;2022-08-07T00:12:37;19.00;84.00
39665;DHT22;26679;50.872;4.332;2022-08-07T00:15:03;18.90;84.30
39665;DHT22;26679;50.872;4.332;2022-08-07T00:17:29;18.80;84.80
39665;DHT22;26679;50.872;4.332;2022-08-07T00:19:54;18.80;84.90
39665;DHT22;26679;50.872;4.332;2022-08-07T00:22:20;18.70;85.40
39665;DHT22;26679;50.872;4.332;2022-08-07T00:24:45;18.60;86.20
39665;DHT22;26679;50.872;4.332;2022-08-07T00:27:11;18.30;86.90
39665;DHT22;26679;50.872;4.332;2022-08-07T00:29:36;18.20;87.30
39665;DHT22;26679;50.872;4.332;2022-08-07T00:32:02;18.20;87.30
39665;DHT22;26679;50.872;4.332;2022-08-07T00:34:27;18.30;87.20
39665;DHT22;26679;50.872;4.332;2022-08-07T00:36:54;18.40;87.20
39665;DHT22;26679;50.872;4.332;2022-08-07T00:39:20;18.50;87.10
39665;DHT22;26679;50.872;4.332;2022-08-07T00:41:53;18.50;87.00
39665;DHT22;26679;50.872;4.332;2022-08-07T00:44:20;18.40;87.20
39665;DHT22;26679;50.872;4.332;2022-08-07T00:46:45;18.40;87.50
39665;DHT22;26679;50.872;4.332;2022-08-07T00:49:11;18.40;87.30
39665;DHT22;26679;50.872;4.332;2022-08-07T00:51:37;18.40;87.40
39665;DHT22;26679;50.872;4.332;2022-08-07T00:54:02;18.50;87.20
39665;DHT22;26679;50.872;4.332;2022-08-07T00:56:28;18.50;87.40
39665;DHT22;26679;50.872;4.332;2022-08-07T00:58:54;18.50;87.30
39665;DHT22;26679;50.872;4.332;2022-08-07T01:01:20;18.50;87.70
39665;DHT22;26679;50.872;4.332;2022-08-07T01:03:45;18.50;87.90
39665;DHT22;26679;50.872;4.332;2022-08-07T01:06:11;18.50;87.90
39665;DHT22;26679;50.872;4.332;2022-08-07T01:08:37;18.50;88.50
39665;DHT22;26679;50.872;4.332;2022-08-07T01:11:03;18.40;88.40
39665;DHT22;26679;50.872;4.332;2022-08-07T01:13:29;18.30;88.70
39665;DHT22;26679;50.872;4.332;2022-08-07T01:15:55;18.30;89.00
39665;DHT22;26679;50.872;4.332;2022-08-07T01:18:21;18.30;89.40
39665;DHT22;26679;50.872;4.332;2022-08-07T01:23:19;18.20;90.00
39665;DHT22;26679;50.872;4.332;2022-08-07T01:25:45;18.10;90.10
39665;DHT22;26679;50.872;4.332;2022-08-07T01:28:11;18.10;90.20
39665;DHT22;26679;50.872;4.332;2022-08-07T01:30:37;18.10;90.20
39665;DHT22;26679;50.872;4.332;2022-08-07T01:33:03;18.00;90.40
39665;DHT22;26679;50.872;4.332;2022-08-07T01:35:28;18.00;90.60
39665;DHT22;26679;50.872;4.332;2022-08-07T01:37:54;18.10;90.50
39665;DHT22;26679;50.872;4.332;2022-08-07T01:40:20;18.10;90.50
39665;DHT22;26679;50.872;4.332;2022-08-07T01:42:47;18.10;90.50
39665;DHT22;26679;50.872;4.332;2022-08-07T01:45:12;18.10;90.50
39665;DHT22;26679;50.872;4.332;2022-08-07T01:47:38;18.00;90.60
39665;DHT22;26679;50.872;4.332;2022-08-07T01:50:04;18.10;90.70
39665;DHT22;26679;50.872;4.332;2022-08-07T01:52:30;18.00;90.80
39665;DHT22;26679;50.872;4.332;2022-08-07T01:54:57;18.00;91.00
39665;DHT22;26679;50.872;4.332;2022-08-07T01:57:26;17.90;91.00
39665;DHT22;26679;50.872;4.332;2022-08-07T01:59:56;17.90;91.00
39665;DHT22;26679;50.872;4.332;2022-08-07T02:02:26;17.90;91.00
39665;DHT22;26679;50.872;4.332;2022-08-07T02:04:53;18.00;91.00
39665;DHT22;26679;50.872;4.332;2022-08-07T02:07:21;18.00;91.00
39665;DHT22;26679;50.872;4.332;2022-08-07T02:09:47;17.90;91.10
39665;DHT22;26679;50.872;4.332;2022-08-07T02:12:13;18.00;91.10
39665;DHT22;26679;50.872;4.332;2022-08-07T02:14:51;17.90;91.30
39665;DHT22;26679;50.872;4.332;2022-08-07T02:17:17;17.90;91.40
39665;DHT22;26679;50.872;4.332;2022-08-07T02:19:45;17.80;91.40
39665;DHT22;26679;50.872;4.332;2022-08-07T02:22:11;17.90;91.40
39665;DHT22;26679;50.872;4.332;2022-08-07T02:24:38;17.90;91.40
39665;DHT22;26679;50.872;4.332;2022-08-07T02:27:04;17.80;91.60
39665;DHT22;26679;50.872;4.332;2022-08-07T02:29:30;17.60;92.00
39665;DHT22;26679;50.872;4.332;2022-08-07T02:31:56;17.50;92.30
39665;DHT22;26679;50.872;4.332;2022-08-07T02:34:22;17.30;92.70
39665;DHT22;26679;50.872;4.332;2022-08-07T02:36:47;17.20;92.90
39665;DHT22;26679;50.872;4.332;2022-08-07T02:39:16;17.10;93.20
39665;DHT22;26679;50.872;4.332;2022-08-07T02:41:43;17.10;93.40
39665;DHT22;26679;50.872;4.332;2022-08-07T02:44:08;17.10;93.50
39665;DHT22;26679;50.872;4.332;2022-08-07T02:46:34;17.10;93.40
39665;DHT22;26679;50.872;4.332;2022-08-07T02:49:00;17.20;93.40
39665;DHT22;26679;50.872;4.332;2022-08-07T02:51:26;17.30;93.30
39665;DHT22;26679;50.872;4.332;2022-08-07T02:53:55;17.40;93.20
39665;DHT22;26679;50.872;4.332;2022-08-07T02:56:22;17.40;93.00
39665;DHT22;26679;50.872;4.332;2022-08-07T02:58:50;17.50;93.00
39665;DHT22;26679;50.872;4.332;2022-08-07T03:01:16;17.40;93.10
39665;DHT22;26679;50.872;4.332;2022-08-07T03:03:42;17.40;93.20
39665;DHT22;26679;50.872;4.332;2022-08-07T03:06:10;17.40;93.30
39665;DHT22;26679;50.872;4.332;2022-08-07T03:08:36;17.30;93.40
39665;DHT22;26679;50.872;4.332;2022-08-07T03:11:02;17.30;93.50
39665;DHT22;26679;50.872;4.332;2022-08-07T03:13:28;17.30;93.50
39665;DHT22;26679;50.872;4.332;2022-08-07T03:15:53;17.30;93.60
39665;DHT22;26679;50.872;4.332;2022-08-07T03:18:20;17.20;93.70
39665;DHT22;26679;50.872;4.332;2022-08-07T03:20:47;17.30;93.70
39665;DHT22;26679;50.872;4.332;2022-08-07T03:23:12;17.20;93.70
39665;DHT22;26679;50.872;4.332;2022-08-07T03:25:39;17.20;93.80
39665;DHT22;26679;50.872;4.332;2022-08-07T03:28:06;17.20;93.80
39665;DHT22;26679;50.872;4.332;2022-08-07T03:30:33;17.30;93.80
39665;DHT22;26679;50.872;4.332;2022-08-07T03:32:59;17.00;94.10
39665;DHT22;26679;50.872;4.332;2022-08-07T03:35:26;16.90;94.50
39665;DHT22;26679;50.872;4.332;2022-08-07T03:37:53;16.90;94.50
39665;DHT22;26679;50.872;4.332;2022-08-07T03:40:19;17.00;94.50
39665;DHT22;26679;50.872;4.332;2022-08-07T03:42:45;17.10;94.50
39665;DHT22;26679;50.872;4.332;2022-08-07T03:45:11;17.10;94.50
39665;DHT22;26679;50.872;4.332;2022-08-07T03:47:36;17.00;94.40
39665;DHT22;26679;50.872;4.332;2022-08-07T03:50:02;17.00;94.50
39665;DHT22;26679;50.872;4.332;2022-08-07T03:52:28;17.10;94.80
39665;DHT22;26679;50.872;4.332;2022-08-07T03:55:00;17.00;94.60
39665;DHT22;26679;50.872;4.332;2022-08-07T03:57:26;17.00;94.90
39665;DHT22;26679;50.872;4.332;2022-08-07T03:59:52;17.00;94.60
39665;DHT22;26679;50.872;4.332;2022-08-07T04:02:18;17.10;94.60
39665;DHT22;26679;50.872;4.332;2022-08-07T04:04:44;16.90;94.80
39665;DHT22;26679;50.872;4.332;2022-08-07T04:07:09;16.90;95.10
39665;DHT22;26679;50.872;4.332;2022-08-07T04:09:35;17.00;95.30
39665;DHT22;26679;50.872;4.332;2022-08-07T04:12:01;16.80;95.30
39665;DHT22;26679;50.872;4.332;2022-08-07T04:14:27;16.90;95.30
39665;DHT22;26679;50.872;4.332;2022-08-07T04:16:52;16.90;95.20
39665;DHT22;26679;50.872;4.332;2022-08-07T04:19:18;16.90;95.30
39665;DHT22;26679;50.872;4.332;2022-08-07T04:21:43;16.80;95.60
39665;DHT22;26679;50.872;4.332;2022-08-07T04:24:09;16.80;95.60
39665;DHT22;26679;50.872;4.332;2022-08-07T04:26:37;16.80;95.70
39665;DHT22;26679;50.872;4.332;2022-08-07T04:29:03;16.80;95.70
39665;DHT22;26679;50.872;4.332;2022-08-07T04:31:30;16.70;96.00
39665;DHT22;26679;50.872;4.332;2022-08-07T04:33:56;16.60;96.40
39665;DHT22;26679;50.872;4.332;2022-08-07T04:36:22;16.40;96.60
39665;DHT22;26679;50.872;4.332;2022-08-07T04:38:48;16.30;96.80
39665;DHT22;26679;50.872;4.332;2022-08-07T04:41:13;16.10;97.20
39665;DHT22;26679;50.872;4.332;2022-08-07T04:43:39;16.00;97.60
39665;DHT22;26679;50.872;4.332;2022-08-07T04:46:06;15.90;97.90
39665;DHT22;26679;50.872;4.332;2022-08-07T04:48:35;16.00;98.00
39665;DHT22;26679;50.872;4.332;2022-08-07T04:51:04;16.10;98.00
39665;DHT22;26679;50.872;4.332;2022-08-07T04:58:38;16.30;97.70
39665;DHT22;26679;50.872;4.332;2022-08-07T05:01:09;16.40;97.70
39665;DHT22;26679;50.872;4.332;2022-08-07T05:03:48;16.50;97.60
39665;DHT22;26679;50.872;4.332;2022-08-07T05:06:21;16.40;97.50
39665;DHT22;26679;50.872;4.332;2022-08-07T05:13:54;16.50;97.70
39665;DHT22;26679;50.872;4.332;2022-08-07T05:16:22;16.60;97.60
39665;DHT22;26679;50.872;4.332;2022-08-07T05:19:22;16.60;97.60
39665;DHT22;26679;50.872;4.332;2022-08-07T05:21:41;16.60;97.70
39665;DHT22;26679;50.872;4.332;2022-08-07T05:24:09;16.70;97.70
39665;DHT22;26679;50.872;4.332;2022-08-07T05:26:35;16.80;97.60
39665;DHT22;26679;50.872;4.332;2022-08-07T05:29:03;16.80;97.60
39665;DHT22;26679;50.872;4.332;2022-08-07T05:31:30;16.70;97.60
39665;DHT22;26679;50.872;4.332;2022-08-07T05:33:57;16.40;98.20
39665;DHT22;26679;50.872;4.332;2022-08-07T05:36:23;16.30;98.70
39665;DHT22;26679;50.872;4.332;2022-08-07T05:38:50;16.30;98.70
39665;DHT22;26679;50.872;4.332;2022-08-07T05:41:16;16.40;98.50
39665;DHT22;26679;50.872;4.332;2022-08-07T05:43:43;16.50;98.40
39665;DHT22;26679;50.872;4.332;2022-08-07T05:46:10;16.60;98.30
39665;DHT22;26679;50.872;4.332;2022-08-07T05:48:36;16.70;98.20
39665;DHT22;26679;50.872;4.332;2022-08-07T05:51:02;16.80;98.10
39665;DHT22;26679;50.872;4.332;2022-08-07T05:53:28;16.90;97.80
39665;DHT22;26679;50.872;4.332;2022-08-07T05:55:53;16.90;97.80
39665;DHT22;26679;50.872;4.332;2022-08-07T05:58:20;16.80;97.90
39665;DHT22;26679;50.872;4.332;2022-08-07T06:00:46;16.90;97.90
39665;DHT22;26679;50.872;4.332;2022-08-07T06:03:12;16.90;97.70
39665;DHT22;26679;50.872;4.332;2022-08-07T06:05:38;17.00;97.50
39665;DHT22;26679;50.872;4.332;2022-08-07T06:08:04;17.10;97.50
39665;DHT22;26679;50.872;4.332;2022-08-07T06:10:30;17.00;97.60
39665;DHT22;26679;50.872;4.332;2022-08-07T06:12:56;17.10;97.40
39665;DHT22;26679;50.872;4.332;2022-08-07T06:15:22;17.20;97.20
39665;DHT22;26679;50.872;4.332;2022-08-07T06:17:47;17.20;97.30
39665;DHT22;26679;50.872;4.332;2022-08-07T06:20:13;17.20;97.20
39665;DHT22;26679;50.872;4.332;2022-08-07T06:22:39;17.30;97.10
39665;DHT22;26679;50.872;4.332;2022-08-07T06:25:06;17.30;97.00
39665;DHT22;26679;50.872;4.332;2022-08-07T06:27:31;17.40;96.90
39665;DHT22;26679;50.872;4.332;2022-08-07T06:29:57;17.50;96.90
39665;DHT22;26679;50.872;4.332;2022-08-07T06:32:24;17.60;96.50
39665;DHT22;26679;50.872;4.332;2022-08-07T06:34:49;17.60;96.60
39665;DHT22;26679;50.872;4.332;2022-08-07T06:37:15;17.70;96.30
39665;DHT22;26679;50.872;4.332;2022-08-07T06:39:40;17.80;96.00
39665;DHT22;26679;50.872;4.332;2022-08-07T06:42:29;18.00;95.90
39665;DHT22;26679;50.872;4.332;2022-08-07T06:44:52;18.00;95.80
39665;DHT22;26679;50.872;4.332;2022-08-07T06:47:19;18.30;95.40
39665;DHT22;26679;50.872;4.332;2022-08-07T06:49:44;18.40;94.80
39665;DHT22;26679;50.872;4.332;2022-08-07T06:52:10;18.50;94.80
39665;DHT22;26679;50.872;4.332;2022-08-07T06:54:37;18.70;94.70
39665;DHT22;26679;50.872;4.332;2022-08-07T06:57:03;18.60;94.20
39665;DHT22;26679;50.872;4.332;2022-08-07T06:59:34;18.40;94.30
39665;DHT22;26679;50.872;4.332;2022-08-07T07:02:00;18.40;94.50
39665;DHT22;26679;50.872;4.332;2022-08-07T07:04:26;18.40;94.40
39665;DHT22;26679;50.872;4.332;2022-08-07T07:06:55;18.40;94.40
39665;DHT22;26679;50.872;4.332;2022-08-07T07:09:22;18.50;94.20
39665;DHT22;26679;50.872;4.332;2022-08-07T07:11:59;18.70;93.80
39665;DHT22;26679;50.872;4.332;2022-08-07T07:14:27;18.80;93.50
39665;DHT22;26679;50.872;4.332;2022-08-07T07:16:53;19.00;93.20
39665;DHT22;26679;50.872;4.332;2022-08-07T07:19:22;19.10;93.10
39665;DHT22;26679;50.872;4.332;2022-08-07T07:21:49;19.10;93.00
39665;DHT22;26679;50.872;4.332;2022-08-07T07:24:16;19.20;93.00
39665;DHT22;26679;50.872;4.332;2022-08-07T07:26:42;19.40;92.80
39665;DHT22;26679;50.872;4.332;2022-08-07T07:29:10;19.50;92.60
39665;DHT22;26679;50.872;4.332;2022-08-07T07:31:36;19.50;92.50
39665;DHT22;26679;50.872;4.332;2022-08-07T07:34:06;19.40;92.50
39665;DHT22;26679;50.872;4.332;2022-08-07T07:36:32;19.40;92.60
39665;DHT22;26679;50.872;4.332;2022-08-07T07:38:59;19.50;92.60
39665;DHT22;26679;50.872;4.332;2022-08-07T07:41:25;19.60;92.50
39665;DHT22;26679;50.872;4.332;2022-08-07T07:43:51;19.80;92.30
39665;DHT22;26679;50.872;4.332;2022-08-07T07:46:18;19.80;91.90
39665;DHT22;26679;50.872;4.332;2022-08-07T07:48:47;19.80;91.80
39665;DHT22;26679;50.872;4.332;2022-08-07T07:51:12;19.70;91.60
39665;DHT22;26679;50.872;4.332;2022-08-07T07:53:40;19.60;91.90
39665;DHT22;26679;50.872;4.332;2022-08-07T07:56:07;19.80;91.60
39665;DHT22;26679;50.872;4.332;2022-08-07T07:58:34;19.80;91.20
39665;DHT22;26679;50.872;4.332;2022-08-07T08:01:00;19.60;91.40
39665;DHT22;26679;50.872;4.332;2022-08-07T08:03:27;19.70;91.30
39665;DHT22;26679;50.872;4.332;2022-08-07T08:05:54;19.90;91.00
39665;DHT22;26679;50.872;4.332;2022-08-07T08:08:20;19.80;91.00
39665;DHT22;26679;50.872;4.332;2022-08-07T08:10:46;19.80;91.10
39665;DHT22;26679;50.872;4.332;2022-08-07T08:13:12;20.00;91.10
39665;DHT22;26679;50.872;4.332;2022-08-07T08:15:39;20.20;90.90
39665;DHT22;26679;50.872;4.332;2022-08-07T08:18:09;20.30;90.60
39665;DHT22;26679;50.872;4.332;2022-08-07T08:20:38;20.30;90.40
39665;DHT22;26679;50.872;4.332;2022-08-07T08:23:05;20.30;90.50
39665;DHT22;26679;50.872;4.332;2022-08-07T08:25:43;20.40;90.50
39665;DHT22;26679;50.872;4.332;2022-08-07T08:28:21;20.50;90.60
39665;DHT22;26679;50.872;4.332;2022-08-07T08:30:46;20.70;90.00
39665;DHT22;26679;50.872;4.332;2022-08-07T08:33:13;20.80;89.60
39665;DHT22;26679;50.872;4.332;2022-08-07T08:35:45;20.90;89.10
39665;DHT22;26679;50.872;4.332;2022-08-07T08:38:11;21.10;87.90
39665;DHT22;26679;50.872;4.332;2022-08-07T08:40:37;21.00;88.10
39665;DHT22;26679;50.872;4.332;2022-08-07T08:45:45;21.10;88.30
39665;DHT22;26679;50.872;4.332;2022-08-07T08:48:17;21.20;87.70
39665;DHT22;26679;50.872;4.332;2022-08-07T08:50:47;21.20;87.50
39665;DHT22;26679;50.872;4.332;2022-08-07T08:55:50;22.20;87.70
39665;DHT22;26679;50.872;4.332;2022-08-07T08:58:18;21.20;86.50
39665;DHT22;26679;50.872;4.332;2022-08-07T09:00:54;21.10;87.40
39665;DHT22;26679;50.872;4.332;2022-08-07T09:03:24;21.10;87.10
39665;DHT22;26679;50.872;4.332;2022-08-07T09:11:05;21.40;85.80
39665;DHT22;26679;50.872;4.332;2022-08-07T09:13:36;21.50;85.10
39665;DHT22;26679;50.872;4.332;2022-08-07T09:28:53;25.50;77.40
39665;DHT22;26679;50.872;4.332;2022-08-07T09:31:22;26.20;75.00
39665;DHT22;26679;50.872;4.332;2022-08-07T09:33:58;26.90;73.40
39665;DHT22;26679;50.872;4.332;2022-08-07T09:36:31;27.40;72.60
39665;DHT22;26679;50.872;4.332;2022-08-07T09:54:07;29.90;67.50
39665;DHT22;26679;50.872;4.332;2022-08-07T09:56:43;29.60;67.20
39665;DHT22;26679;50.872;4.332;2022-08-07T10:09:12;30.90;64.60
39665;DHT22;26679;50.872;4.332;2022-08-07T10:11:50;31.20;64.30
39665;DHT22;26679;50.872;4.332;2022-08-07T10:19:45;31.60;63.40
39665;DHT22;26679;50.872;4.332;2022-08-07T10:32:28;32.20;61.90
39665;DHT22;26679;50.872;4.332;2022-08-07T10:47:46;33.40;60.00
39665;DHT22;26679;50.872;4.332;2022-08-07T10:50:19;33.70;59.70
39665;DHT22;26679;50.872;4.332;2022-08-07T10:52:50;33.50;59.40
39665;DHT22;26679;50.872;4.332;2022-08-07T10:55:17;33.10;59.50
39665;DHT22;26679;50.872;4.332;2022-08-07T10:57:46;33.20;59.20
39665;DHT22;26679;50.872;4.332;2022-08-07T11:00:13;33.50;58.60
39665;DHT22;26679;50.872;4.332;2022-08-07T11:13:00;34.30;58.40
39665;DHT22;26679;50.872;4.332;2022-08-07T11:15:27;34.20;57.90
39665;DHT22;26679;50.872;4.332;2022-08-07T11:20:42;35.20;57.50
39665;DHT22;26679;50.872;4.332;2022-08-07T11:23:16;35.00;57.20
39665;DHT22;26679;50.872;4.332;2022-08-07T11:25:45;35.40;57.10
39665;DHT22;26679;50.872;4.332;2022-08-07T11:28:18;35.20;56.70
39665;DHT22;26679;50.872;4.332;2022-08-07T11:43:28;35.80;55.10
39665;DHT22;26679;50.872;4.332;2022-08-07T11:53:36;33.90;56.40
39665;DHT22;26679;50.872;4.332;2022-08-07T12:01:13;35.00;56.10
39665;DHT22;26679;50.872;4.332;2022-08-07T12:08:47;36.30;54.40
39665;DHT22;26679;50.872;4.332;2022-08-07T12:11:15;36.30;53.70
39665;DHT22;26679;50.872;4.332;2022-08-07T12:16:20;35.90;54.50
39665;DHT22;26679;50.872;4.332;2022-08-07T12:18:52;36.20;53.70
39665;DHT22;26679;50.872;4.332;2022-08-07T12:31:30;37.70;52.20
39665;DHT22;26679;50.872;4.332;2022-08-07T12:33:59;38.20;52.20
39665;DHT22;26679;50.872;4.332;2022-08-07T12:36:25;38.60;52.10
39665;DHT22;26679;50.872;4.332;2022-08-07T12:38:52;38.60;51.70
39665;DHT22;26679;50.872;4.332;2022-08-07T12:41:22;38.20;51.90
39665;DHT22;26679;50.872;4.332;2022-08-07T12:43:48;38.20;52.10
39665;DHT22;26679;50.872;4.332;2022-08-07T12:51:19;38.40;52.10
39665;DHT22;26679;50.872;4.332;2022-08-07T12:53:50;38.40;52.20
39665;DHT22;26679;50.872;4.332;2022-08-07T12:58:48;37.60;51.30
39665;DHT22;26679;50.872;4.332;2022-08-07T13:14:40;35.50;51.70
39665;DHT22;26679;50.872;4.332;2022-08-07T13:19:48;36.20;52.10
39665;DHT22;26679;50.872;4.332;2022-08-07T13:27:37;37.50;52.30
39665;DHT22;26679;50.872;4.332;2022-08-07T13:30:04;37.90;52.00
39665;DHT22;26679;50.872;4.332;2022-08-07T13:40:16;37.80;52.10
39665;DHT22;26679;50.872;4.332;2022-08-07T13:42:44;37.70;52.20
39665;DHT22;26679;50.872;4.332;2022-08-07T13:45:12;38.00;51.70
39665;DHT22;26679;50.872;4.332;2022-08-07T13:47:38;37.90;51.90
39665;DHT22;26679;50.872;4.332;2022-08-07T13:50:06;38.20;51.20
39665;DHT22;26679;50.872;4.332;2022-08-07T13:52:36;36.60;52.00
39665;DHT22;26679;50.872;4.332;2022-08-07T13:55:07;36.90;51.60
39665;DHT22;26679;50.872;4.332;2022-08-07T13:57:34;35.50;51.90
39665;DHT22;26679;50.872;4.332;2022-08-07T14:00:02;35.20;52.60
39665;DHT22;26679;50.872;4.332;2022-08-07T14:02:31;35.60;52.50
39665;DHT22;26679;50.872;4.332;2022-08-07T14:04:59;35.80;52.90
39665;DHT22;26679;50.872;4.332;2022-08-07T14:07:46;37.00;52.60
39665;DHT22;26679;50.872;4.332;2022-08-07T14:10:11;37.30;52.80
39665;DHT22;26679;50.872;4.332;2022-08-07T14:15:25;38.30;51.90
39665;DHT22;26679;50.872;4.332;2022-08-07T14:17:53;38.50;51.80
39665;DHT22;26679;50.872;4.332;2022-08-07T14:20:19;38.40;52.00
39665;DHT22;26679;50.872;4.332;2022-08-07T14:22:47;38.60;51.80
39665;DHT22;26679;50.872;4.332;2022-08-07T14:25:15;39.20;51.60
39665;DHT22;26679;50.872;4.332;2022-08-07T14:27:45;39.50;51.30
39665;DHT22;26679;50.872;4.332;2022-08-07T14:30:11;39.80;51.60
39665;DHT22;26679;50.872;4.332;2022-08-07T14:32:41;39.90;51.20
39665;DHT22;26679;50.872;4.332;2022-08-07T14:35:10;39.80;50.70
39665;DHT22;26679;50.872;4.332;2022-08-07T14:37:41;39.80;50.90
39665;DHT22;26679;50.872;4.332;2022-08-07T14:40:11;39.80;51.20
39665;DHT22;26679;50.872;4.332;2022-08-07T14:42:37;39.60;51.20
39665;DHT22;26679;50.872;4.332;2022-08-07T14:45:03;39.90;51.40
39665;DHT22;26679;50.872;4.332;2022-08-07T14:47:30;39.90;51.30
39665;DHT22;26679;50.872;4.332;2022-08-07T14:49:56;40.00;51.50
39665;DHT22;26679;50.872;4.332;2022-08-07T14:52:23;40.30;51.30
39665;DHT22;26679;50.872;4.332;2022-08-07T14:54:48;40.10;51.30
39665;DHT22;26679;50.872;4.332;2022-08-07T14:57:15;39.90;51.50
39665;DHT22;26679;50.872;4.332;2022-08-07T14:59:42;39.50;51.60
39665;DHT22;26679;50.872;4.332;2022-08-07T15:02:09;39.70;51.40
39665;DHT22;26679;50.872;4.332;2022-08-07T15:04:38;39.40;51.40
39665;DHT22;26679;50.872;4.332;2022-08-07T15:07:04;39.40;51.30
39665;DHT22;26679;50.872;4.332;2022-08-07T15:09:29;38.90;51.60
39665;DHT22;26679;50.872;4.332;2022-08-07T15:11:59;38.90;51.70
39665;DHT22;26679;50.872;4.332;2022-08-07T15:14:25;38.60;51.80
39665;DHT22;26679;50.872;4.332;2022-08-07T15:19:29;38.60;51.80
39665;DHT22;26679;50.872;4.332;2022-08-07T15:21:56;38.90;51.50
39665;DHT22;26679;50.872;4.332;2022-08-07T15:24:24;38.70;51.50
39665;DHT22;26679;50.872;4.332;2022-08-07T15:29:31;38.20;51.90
39665;DHT22;26679;50.872;4.332;2022-08-07T15:31:59;38.20;51.80
39665;DHT22;26679;50.872;4.332;2022-08-07T15:34:26;38.30;51.70
39665;DHT22;26679;50.872;4.332;2022-08-07T15:36:52;38.60;51.60
39665;DHT22;26679;50.872;4.332;2022-08-07T15:39:18;38.30;51.30
39665;DHT22;26679;50.872;4.332;2022-08-07T15:44:21;38.20;51.40
39665;DHT22;26679;50.872;4.332;2022-08-07T15:46:55;38.30;51.30
39665;DHT22;26679;50.872;4.332;2022-08-07T15:49:22;38.10;51.40
39665;DHT22;26679;50.872;4.332;2022-08-07T15:51:48;38.30;51.50
39665;DHT22;26679;50.872;4.332;2022-08-07T15:54:15;38.30;51.40
39665;DHT22;26679;50.872;4.332;2022-08-07T15:56:40;37.60;51.50
39665;DHT22;26679;50.872;4.332;2022-08-07T15:59:08;38.00;51.60
39665;DHT22;26679;50.872;4.332;2022-08-07T16:04:13;38.20;51.40
39665;DHT22;26679;50.872;4.332;2022-08-07T16:14:17;37.40;51.80
39665;DHT22;26679;50.872;4.332;2022-08-07T16:21:45;37.90;51.80
39665;DHT22;26679;50.872;4.332;2022-08-07T16:32:09;36.20;52.60
39665;DHT22;26679;50.872;4.332;2022-08-07T16:42:31;36.20;53.20
39665;DHT22;26679;50.872;4.332;2022-08-07T16:45:06;36.00;53.40
39665;DHT22;26679;50.872;4.332;2022-08-07T16:52:59;35.70;53.80
39665;DHT22;26679;50.872;4.332;2022-08-07T16:55:37;35.70;54.20
39665;DHT22;26679;50.872;4.332;2022-08-07T16:58:04;35.80;54.20
39665;DHT22;26679;50.872;4.332;2022-08-07T17:05:43;35.30;55.00
39665;DHT22;26679;50.872;4.332;2022-08-07T17:08:10;35.30;55.20
39665;DHT22;26679;50.872;4.332;2022-08-07T17:10:49;35.40;54.90
39665;DHT22;26679;50.872;4.332;2022-08-07T17:20:57;34.60;56.20
39665;DHT22;26679;50.872;4.332;2022-08-07T17:31:46;33.00;57.80
39665;DHT22;26679;50.872;4.332;2022-08-07T17:34:48;33.20;57.90
39665;DHT22;26679;50.872;4.332;2022-08-07T17:36:56;33.30;58.00
39665;DHT22;26679;50.872;4.332;2022-08-07T17:42:06;33.10;58.10
39665;DHT22;26679;50.872;4.332;2022-08-07T17:47:11;33.00;58.50
39665;DHT22;26679;50.872;4.332;2022-08-07T17:52:10;32.70;58.60
39665;DHT22;26679;50.872;4.332;2022-08-07T17:59:37;31.30;60.00
39665;DHT22;26679;50.872;4.332;2022-08-07T18:02:06;30.80;60.40
39665;DHT22;26679;50.872;4.332;2022-08-07T18:09:33;30.00;61.70
39665;DHT22;26679;50.872;4.332;2022-08-07T18:14:38;30.00;61.90
39665;DHT22;26679;50.872;4.332;2022-08-07T18:19:43;30.00;62.00
39665;DHT22;26679;50.872;4.332;2022-08-07T18:22:12;29.60;62.40
39665;DHT22;26679;50.872;4.332;2022-08-07T18:24:41;29.30;62.80
39665;DHT22;26679;50.872;4.332;2022-08-07T18:27:11;28.70;63.50
39665;DHT22;26679;50.872;4.332;2022-08-07T18:34:52;27.90;64.50
39665;DHT22;26679;50.872;4.332;2022-08-07T18:37:30;28.00;64.80
39665;DHT22;26679;50.872;4.332;2022-08-07T18:40:02;28.50;64.50
39665;DHT22;26679;50.872;4.332;2022-08-07T18:42:35;28.60;64.30
39665;DHT22;26679;50.872;4.332;2022-08-07T18:45:10;28.30;64.40
39665;DHT22;26679;50.872;4.332;2022-08-07T18:47:37;27.70;65.10
39665;DHT22;26679;50.872;4.332;2022-08-07T18:52:46;27.00;66.20
39665;DHT22;26679;50.872;4.332;2022-08-07T19:03:03;26.40;67.90
39665;DHT22;26679;50.872;4.332;2022-08-07T19:05:38;25.80;68.80
39665;DHT22;26679;50.872;4.332;2022-08-07T19:08:09;25.80;69.10
39665;DHT22;26679;50.872;4.332;2022-08-07T19:10:38;25.60;69.10
39665;DHT22;26679;50.872;4.332;2022-08-07T19:21:08;25.30;70.00
39665;DHT22;26679;50.872;4.332;2022-08-07T19:26:13;25.20;70.20
39665;DHT22;26679;50.872;4.332;2022-08-07T19:28:41;25.00;70.50
39665;DHT22;26679;50.872;4.332;2022-08-07T19:33:44;24.90;70.90
39665;DHT22;26679;50.872;4.332;2022-08-07T19:36:12;24.80;71.00
39665;DHT22;26679;50.872;4.332;2022-08-07T19:38:38;24.90;70.90
39665;DHT22;26679;50.872;4.332;2022-08-07T19:41:06;24.80;71.20
39665;DHT22;26679;50.872;4.332;2022-08-07T19:43:32;24.70;71.40
39665;DHT22;26679;50.872;4.332;2022-08-07T19:45:58;24.70;71.60
39665;DHT22;26679;50.872;4.332;2022-08-07T19:48:33;24.70;71.60
39665;DHT22;26679;50.872;4.332;2022-08-07T19:51:02;24.60;71.80
39665;DHT22;26679;50.872;4.332;2022-08-07T19:53:28;24.60;71.90
39665;DHT22;26679;50.872;4.332;2022-08-07T19:55:53;24.50;72.00
39665;DHT22;26679;50.872;4.332;2022-08-07T19:58:19;24.50;72.10
39665;DHT22;26679;50.872;4.332;2022-08-07T20:00:47;24.40;72.10
39665;DHT22;26679;50.872;4.332;2022-08-07T20:03:17;24.40;72.10
39665;DHT22;26679;50.872;4.332;2022-08-07T20:05:45;24.40;72.30
39665;DHT22;26679;50.872;4.332;2022-08-07T20:08:12;24.30;72.30
39665;DHT22;26679;50.872;4.332;2022-08-07T20:10:38;24.20;72.60
39665;DHT22;26679;50.872;4.332;2022-08-07T20:13:05;24.20;73.20
39665;DHT22;26679;50.872;4.332;2022-08-07T20:15:33;24.10;72.90
39665;DHT22;26679;50.872;4.332;2022-08-07T20:17:59;24.00;73.00
39665;DHT22;26679;50.872;4.332;2022-08-07T20:20:26;23.90;73.30
39665;DHT22;26679;50.872;4.332;2022-08-07T20:22:54;23.90;73.40
39665;DHT22;26679;50.872;4.332;2022-08-07T20:25:23;23.90;73.50
39665;DHT22;26679;50.872;4.332;2022-08-07T20:27:49;23.80;73.60
39665;DHT22;26679;50.872;4.332;2022-08-07T20:30:20;23.70;73.80
39665;DHT22;26679;50.872;4.332;2022-08-07T20:32:46;23.70;73.60
39665;DHT22;26679;50.872;4.332;2022-08-07T20:35:13;23.80;73.80